createdAt,value
2019-02-04T00:01:53.961Z,73.16
2019-02-04T00:06:55.291Z,72.87
2019-02-04T00:11:56.635Z,73.53
2019-02-04T00:16:57.948Z,73.16
2019-02-04T00:21:59.396Z,73.44
2019-02-04T00:27:00.709Z,73.67
2019-02-04T00:32:02.050Z,73.19
2019-02-04T00:37:03.404Z,73.37
2019-02-04T00:42:04.713Z,73.46
2019-02-04T00:47:06.024Z,73.54
2019-02-04T00:52:07.373Z,73.25
2019-02-04T00:57:09.417Z,73.32
2019-02-04T01:02:10.757Z,73.18
2019-02-04T01:07:12.099Z,72.65
2019-02-04T01:12:13.453Z,72.26
2019-02-04T01:17:14.797Z,72.08
2019-02-04T01:22:16.883Z,72.01
2019-02-04T01:27:18.985Z,71.97
2019-02-04T01:32:20.382Z,72.03
2019-02-04T01:37:21.721Z,71.68
2019-02-04T01:42:23.056Z,71.49
2019-02-04T01:47:25.293Z,71.11
2019-02-04T01:52:26.584Z,70.85
2019-02-04T01:57:27.929Z,70.92
2019-02-04T02:02:29.259Z,70.95
2019-02-04T02:07:30.610Z,71.08
2019-02-04T02:12:31.980Z,71.19
2019-02-04T02:17:33.304Z,70.85
2019-02-04T02:22:34.650Z,71.01
2019-02-04T02:27:35.969Z,70.84
2019-02-04T02:32:37.399Z,71.07
2019-02-04T02:37:38.687Z,70.90
2019-02-04T02:42:40.754Z,71.08
2019-02-04T02:47:42.812Z,71.00
2019-02-04T02:52:44.122Z,71.12
2019-02-04T02:57:45.505Z,71.25
2019-02-04T03:02:46.917Z,71.23
2019-02-04T03:07:48.242Z,71.25
2019-02-04T03:12:49.572Z,71.00
2019-02-04T03:17:52.478Z,71.09
2019-02-04T03:22:52.993Z,71.11
2019-02-04T03:27:54.358Z,71.17
2019-02-04T03:32:56.415Z,71.12
2019-02-04T03:37:57.768Z,70.99
2019-02-04T03:42:59.118Z,71.16
2019-02-04T03:48:05.093Z,71.11
2019-02-04T03:53:01.841Z,71.13
2019-02-04T03:58:03.233Z,71.17
2019-02-04T04:03:04.576Z,71.05
2019-02-04T04:08:05.922Z,71.10
2019-02-04T04:13:07.265Z,71.07
2019-02-04T04:18:15.610Z,71.12
2019-02-04T04:23:10.009Z,71.12
2019-02-04T04:28:16.992Z,70.90
2019-02-04T04:33:18.288Z,71.13
2019-02-04T04:38:19.603Z,71.10
2019-02-04T04:43:20.923Z,71.12
2019-02-04T04:48:26.565Z,71.14
2019-02-04T04:53:23.542Z,71.21
2019-02-04T04:58:24.922Z,71.21
2019-02-04T05:03:26.260Z,71.32
2019-02-04T05:08:27.620Z,71.30
2019-02-04T05:13:29.300Z,71.35
2019-02-04T05:18:37.896Z,71.39
2019-02-04T05:23:31.925Z,71.41
2019-02-04T05:28:33.235Z,71.40
2019-02-04T05:33:34.548Z,71.41
2019-02-04T05:38:35.855Z,71.42
2019-02-04T05:43:38.000Z,71.38
2019-02-04T05:48:49.053Z,71.26
2019-02-04T05:53:40.665Z,70.91
2019-02-04T05:58:41.991Z,71.20
2019-02-04T06:03:43.308Z,71.27
2019-02-04T06:08:45.524Z,71.28
2019-02-04T06:13:47.236Z,71.28
2019-02-04T06:18:48.541Z,71.28
2019-02-04T06:24:00.717Z,71.30
2019-02-04T06:29:02.057Z,71.34
2019-02-04T06:34:03.497Z,71.42
2019-02-04T06:39:04.825Z,71.48
2019-02-04T06:44:13.793Z,71.52
2019-02-04T06:49:23.628Z,71.52
2019-02-04T06:54:24.925Z,71.49
2019-02-04T06:59:26.225Z,71.53
2019-02-04T07:04:27.558Z,71.46
2019-02-04T07:09:28.869Z,71.44
2019-02-04T07:14:30.180Z,71.42
2019-02-04T07:19:31.484Z,71.31
2019-02-04T07:24:42.403Z,71.27
2019-02-04T07:29:34.130Z,71.17
2019-02-04T07:34:36.226Z,71.04
2019-02-04T07:39:38.256Z,70.80
2019-02-04T07:44:39.603Z,70.55
2019-02-04T07:49:40.928Z,70.00
2019-02-04T07:54:42.230Z,69.71
2019-02-04T07:59:43.561Z,69.60
2019-02-04T08:04:44.847Z,69.36
2019-02-04T08:09:46.224Z,69.24
2019-02-04T08:14:47.560Z,69.15
2019-02-04T08:19:49.849Z,69.11
2019-02-04T08:24:51.905Z,68.99
2019-02-04T08:29:53.213Z,68.78
2019-02-04T08:34:54.539Z,68.88
2019-02-04T08:39:56.604Z,68.75
2019-02-04T08:44:57.907Z,68.80
2019-02-04T08:50:01.799Z,68.81
2019-02-04T08:55:00.634Z,68.85
2019-02-04T09:00:02.905Z,68.69
2019-02-04T09:05:04.281Z,68.73
2019-02-04T09:10:05.679Z,68.78
2019-02-04T09:15:11.217Z,68.85
2019-02-04T09:20:12.529Z,68.63
2019-02-04T09:25:14.738Z,68.73
2019-02-04T09:30:16.992Z,68.80
2019-02-04T09:35:18.324Z,69.01
2019-02-04T09:40:31.652Z,69.03
2019-02-04T09:45:32.940Z,69.46
2019-02-04T09:50:35.005Z,69.75
2019-02-04T09:55:39.768Z,69.85
2019-02-04T10:00:41.080Z,69.98
2019-02-04T10:05:43.138Z,70.52
2019-02-04T10:10:44.525Z,70.32
2019-02-04T10:15:46.231Z,70.37
2019-02-04T10:20:47.203Z,69.84
2019-02-04T10:25:48.835Z,69.39
2019-02-04T10:30:50.881Z,69.15
2019-02-04T10:35:52.258Z,68.89
2019-02-04T10:40:53.654Z,67.51
2019-02-04T10:45:55.799Z,67.94
2019-02-04T10:50:57.075Z,67.48
2019-02-04T10:55:58.395Z,67.30
2019-02-04T11:00:59.834Z,66.63
2019-02-04T11:06:01.179Z,66.50
2019-02-04T11:11:03.375Z,67.53
2019-02-04T11:16:05.428Z,66.43
2019-02-04T11:21:06.775Z,66.49
2019-02-04T11:26:08.105Z,65.37
2019-02-04T11:31:09.428Z,66.74
2019-02-04T11:36:10.725Z,66.65
2019-02-04T11:41:12.077Z,66.81
2019-02-04T11:46:13.416Z,66.68
2019-02-04T11:51:14.728Z,65.91
2019-02-04T11:56:16.020Z,67.04
2019-02-04T12:01:17.315Z,66.76
2019-02-04T12:06:18.631Z,67.02
2019-02-04T12:11:19.909Z,68.14
2019-02-04T12:16:21.247Z,68.56
2019-02-04T12:21:22.589Z,68.38
2019-02-04T12:26:23.900Z,68.42
2019-02-04T12:31:25.217Z,68.03
2019-02-04T12:36:26.533Z,67.36
2019-02-04T12:41:27.869Z,67.44
2019-02-04T12:46:29.244Z,67.85
2019-02-04T12:51:33.851Z,67.94
2019-02-04T12:56:31.884Z,66.34
2019-02-04T13:01:33.241Z,65.54
2019-02-04T13:06:34.564Z,66.08
2019-02-04T13:11:35.860Z,65.67
2019-02-04T13:16:37.151Z,62.12
2019-02-04T13:21:45.475Z,62.24
2019-02-04T13:26:40.515Z,62.08
2019-02-04T13:31:41.816Z,62.71
2019-02-04T13:36:43.212Z,62.32
2019-02-04T13:41:44.529Z,62.31
2019-02-04T13:46:45.825Z,60.74
2019-02-04T13:51:57.126Z,62.33
2019-02-04T13:56:48.428Z,62.19
2019-02-04T14:01:49.812Z,62.19
2019-02-04T14:06:51.122Z,59.50
2019-02-04T14:11:52.404Z,57.49
2019-02-04T14:16:53.691Z,58.26
2019-02-04T14:21:54.970Z,59.53
2019-02-04T14:26:56.267Z,60.95
2019-02-04T14:31:57.586Z,61.89
2019-02-04T14:36:58.925Z,61.42
2019-02-04T14:42:00.416Z,61.62
2019-02-04T14:47:02.517Z,58.18
2019-02-04T14:52:21.627Z,62.03
2019-02-04T15:03:20.228Z,65.80
2019-02-04T15:14:42.952Z,65.05
2019-02-04T15:19:46.756Z,62.25
2019-02-04T15:30:36.877Z,62.79
2019-02-04T15:35:52.404Z,62.47
2019-02-04T15:40:58.445Z,61.94
2019-02-04T15:46:03.368Z,61.71
2019-02-04T15:51:08.460Z,62.94
2019-02-04T15:56:09.769Z,62.99
2019-02-04T16:01:11.068Z,62.98
2019-02-04T16:06:12.351Z,63.22
2019-02-04T16:11:13.671Z,64.77
2019-02-04T16:16:14.962Z,64.35
2019-02-04T16:21:16.273Z,64.59
2019-02-04T16:26:17.636Z,64.86
2019-02-04T16:31:18.940Z,65.10
2019-02-04T16:36:20.279Z,64.51
2019-02-04T16:41:21.616Z,64.64
2019-02-04T16:46:23.658Z,64.94
2019-02-04T16:51:25.004Z,65.31
2019-02-04T16:56:26.349Z,64.60
2019-02-04T17:01:27.655Z,63.79
2019-02-04T17:06:29.023Z,63.40
2019-02-04T17:11:30.884Z,63.14
2019-02-04T17:16:32.238Z,63.63
2019-02-04T17:21:33.553Z,63.13
2019-02-04T17:26:35.610Z,63.55
2019-02-04T17:31:36.933Z,63.17
2019-02-04T17:36:39.034Z,63.49
2019-02-04T17:41:40.434Z,63.45
2019-02-04T17:46:44.538Z,63.63
2019-02-04T17:51:46.821Z,64.01
2019-02-04T17:56:48.153Z,64.23
2019-02-04T18:01:52.687Z,64.81
2019-02-04T18:06:53.993Z,64.37
2019-02-04T18:11:56.887Z,63.82
2019-02-04T18:16:58.211Z,63.57
2019-02-04T18:21:59.782Z,63.45
2019-02-04T18:27:01.122Z,63.33
2019-02-04T18:32:02.469Z,63.31
2019-02-04T18:37:09.269Z,63.09
2019-02-04T18:42:13.695Z,63.36
2019-02-04T18:47:15.178Z,63.51
2019-02-04T18:52:18.410Z,64.28
2019-02-04T18:57:28.085Z,64.66
2019-02-04T19:02:32.120Z,64.47
2019-02-04T19:07:34.832Z,64.54
2019-02-04T19:12:36.233Z,64.48
2019-02-04T19:17:42.877Z,64.49
2019-02-04T19:22:45.316Z,64.76
2019-02-04T19:27:52.017Z,64.50
2019-02-04T19:32:54.093Z,64.23
2019-02-04T19:37:56.202Z,64.26
2019-02-04T19:42:59.617Z,64.28
2019-02-04T19:48:03.086Z,63.81
2019-02-04T19:53:02.534Z,63.96
2019-02-04T19:58:03.901Z,63.89
2019-02-04T20:03:09.486Z,63.67
2019-02-04T20:08:11.956Z,63.70
2019-02-04T20:13:13.429Z,63.66
2019-02-04T20:18:14.922Z,63.64
2019-02-04T20:23:16.215Z,63.83
2019-02-04T20:28:17.621Z,63.89
2019-02-04T20:33:18.973Z,63.99
2019-02-04T20:38:20.336Z,64.05
2019-02-04T20:43:21.725Z,64.12
2019-02-04T20:48:23.035Z,64.32
2019-02-04T20:53:24.334Z,64.18
2019-02-04T20:58:26.719Z,64.08
2019-02-04T21:03:28.825Z,64.27
2019-02-04T21:08:30.157Z,63.81
2019-02-04T21:13:32.529Z,63.82
2019-02-04T21:18:35.086Z,64.00
2019-02-04T21:23:37.949Z,64.08
2019-02-04T21:28:47.739Z,64.04
2019-02-04T21:34:03.297Z,63.94
2019-02-04T21:39:13.442Z,64.13
2019-02-04T21:44:19.283Z,64.27
2019-02-04T21:49:32.958Z,64.34
2019-02-04T21:54:35.001Z,64.00
2019-02-04T21:59:37.032Z,64.29
2019-02-04T22:05:02.568Z,64.15
2019-02-04T22:10:11.329Z,64.10
2019-02-04T22:15:13.282Z,63.80
2019-02-04T22:20:15.676Z,63.75
2019-02-04T22:25:19.862Z,63.55
2019-02-04T22:30:19.961Z,63.84
2019-02-04T22:35:29.997Z,63.42
2019-02-04T22:40:35.960Z,63.15
2019-02-04T22:45:37.410Z,63.48
2019-02-04T22:50:39.415Z,63.31
2019-02-04T22:55:41.496Z,63.49
2019-02-04T23:00:50.229Z,63.19
2019-02-04T23:05:53.096Z,63.91
2019-02-04T23:10:54.490Z,63.87
2019-02-04T23:15:57.368Z,63.73
2019-02-04T23:20:58.802Z,63.62
2019-02-04T23:26:01.273Z,63.39
2019-02-04T23:31:05.522Z,63.39
2019-02-04T23:36:06.950Z,63.22
2019-02-04T23:41:09.197Z,63.35
2019-02-04T23:46:10.538Z,63.16
2019-02-04T23:51:11.888Z,63.09
2019-02-04T23:56:13.284Z,62.59
